createdAt,value
2022-09-24T00:02:11.703Z,1.50
2022-09-24T00:07:15.369Z,1.50
2022-09-24T00:12:22.396Z,1.20
2022-09-24T00:17:26.132Z,1.30
2022-09-24T00:22:30.132Z,1.60
2022-09-24T00:27:35.468Z,1.43
2022-09-24T00:32:39.078Z,1.80
2022-09-24T00:37:42.814Z,1.30
2022-09-24T00:42:48.000Z,1.17
2022-09-24T00:47:52.939Z,1.50
2022-09-24T00:53:00.276Z,1.20
2022-09-24T00:58:08.433Z,1.27
2022-09-24T01:03:15.611Z,1.30
2022-09-24T01:08:21.184Z,1.30
2022-09-24T01:13:48.481Z,1.13
2022-09-24T01:19:00.921Z,1.70
2022-09-24T01:24:25.277Z,1.73
2022-09-24T01:29:50.208Z,1.50
2022-09-24T01:35:00.110Z,1.40
2022-09-24T01:40:06.394Z,1.57
2022-09-24T01:45:13.051Z,1.20
2022-09-24T01:50:18.743Z,1.37
2022-09-24T01:55:29.873Z,1.70
2022-09-24T02:00:35.116Z,1.57
2022-09-24T02:05:45.534Z,2.13
2022-09-24T02:10:55.923Z,1.40
2022-09-24T02:16:05.771Z,1.53
2022-09-24T02:21:12.514Z,1.47
2022-09-24T02:26:16.316Z,1.30
2022-09-24T02:31:27.418Z,1.50
2022-09-24T02:36:31.550Z,1.50
2022-09-24T02:41:36.150Z,1.70
2022-09-24T02:46:41.987Z,2.10
2022-09-24T02:51:46.016Z,1.63
2022-09-24T02:56:50.129Z,1.50
2022-09-24T03:01:57.877Z,1.93
2022-09-24T03:07:01.594Z,1.43
2022-09-24T03:12:05.328Z,1.20
2022-09-24T03:17:10.285Z,1.50
2022-09-24T03:22:13.970Z,1.73
2022-09-24T03:27:17.966Z,1.67
2022-09-24T03:32:22.867Z,1.40
2022-09-24T03:37:26.477Z,1.93
2022-09-24T03:42:30.202Z,1.53
2022-09-24T03:47:35.898Z,1.63
2022-09-24T03:52:39.750Z,1.70
2022-09-24T03:57:43.522Z,1.30
2022-09-24T04:02:48.655Z,1.37
2022-09-24T04:07:52.169Z,1.60
2022-09-24T04:12:55.940Z,1.53
2022-09-24T04:18:01.476Z,1.40
2022-09-24T04:23:05.303Z,2.30
2022-09-24T04:28:10.559Z,1.53
2022-09-24T04:33:15.720Z,2.17
2022-09-24T04:38:21.634Z,1.40
2022-09-24T04:43:25.558Z,1.57
2022-09-24T04:48:31.028Z,1.63
2022-09-24T04:53:35.330Z,1.70
2022-09-24T04:58:38.929Z,1.57
2022-09-24T05:03:46.073Z,1.67
2022-09-24T05:08:49.863Z,1.30
2022-09-24T05:13:53.446Z,1.47
2022-09-24T05:18:59.088Z,1.50
2022-09-24T05:24:02.798Z,1.30
2022-09-24T05:29:06.734Z,1.50
2022-09-24T05:34:14.326Z,1.60
2022-09-24T05:39:18.028Z,1.30
2022-09-24T05:44:21.684Z,1.70
2022-09-24T05:49:26.818Z,1.53
2022-09-24T05:54:30.293Z,1.50
2022-09-24T05:59:33.701Z,1.63
2022-09-24T06:04:39.671Z,1.97
2022-09-24T06:09:44.223Z,3.00
2022-09-24T06:14:48.021Z,4.50
2022-09-24T06:19:53.803Z,4.83
2022-09-24T06:24:58.036Z,5.57
2022-09-24T06:30:02.274Z,5.20
2022-09-24T06:35:08.075Z,5.17
2022-09-24T06:40:12.453Z,5.73
2022-09-24T06:45:16.112Z,4.37
2022-09-24T06:50:21.623Z,3.70
2022-09-24T06:55:25.655Z,3.10
2022-09-24T07:00:29.965Z,4.47
2022-09-24T07:05:39.715Z,4.20
2022-09-24T07:10:49.219Z,4.47
2022-09-24T07:15:53.388Z,4.30
2022-09-24T07:20:58.317Z,4.70
2022-09-24T07:26:01.908Z,2.70
2022-09-24T07:31:05.630Z,3.73
2022-09-24T07:36:11.012Z,3.03
2022-09-24T07:41:14.530Z,2.50
2022-09-24T07:46:18.215Z,2.30
2022-09-24T07:51:23.747Z,2.30
2022-09-24T07:56:27.370Z,1.87
2022-09-24T08:01:32.536Z,2.33
2022-09-24T08:06:41.370Z,2.10
2022-09-24T08:11:48.433Z,1.60
2022-09-24T08:16:51.912Z,2.30
2022-09-24T08:21:57.710Z,2.63
2022-09-24T08:27:01.214Z,2.30
2022-09-24T08:32:05.243Z,2.77
2022-09-24T08:37:10.200Z,2.37
2022-09-24T08:42:24.898Z,2.70
2022-09-24T08:47:36.371Z,2.53
2022-09-24T08:52:58.241Z,2.73
2022-09-24T08:58:19.583Z,3.40
2022-09-24T09:03:33.351Z,3.43
2022-09-24T09:14:17.706Z,2.43
2022-09-24T09:19:26.831Z,3.20
2022-09-24T09:24:42.201Z,1.97
2022-09-24T09:29:50.144Z,2.97
2022-09-24T09:35:00.777Z,4.10
2022-09-24T09:40:21.670Z,2.30
2022-09-24T09:45:32.576Z,2.00
2022-09-24T09:50:41.040Z,2.10
2022-09-24T09:55:54.257Z,2.13
2022-09-24T10:01:07.505Z,2.17
2022-09-24T10:06:13.665Z,2.40
2022-09-24T10:11:20.232Z,2.43
2022-09-24T10:16:24.315Z,2.17
2022-09-24T10:21:34.412Z,2.40
2022-09-24T10:26:44.983Z,2.07
2022-09-24T10:31:49.949Z,3.00
2022-09-24T10:36:59.188Z,1.93
2022-09-24T10:42:05.510Z,1.97
2022-09-24T10:47:20.873Z,2.00
2022-09-24T10:52:40.067Z,2.20
2022-09-24T10:57:57.523Z,2.03
2022-09-24T11:03:36.278Z,2.20
2022-09-24T11:08:55.840Z,2.00
2022-09-24T11:14:14.414Z,2.60
2022-09-24T11:19:44.964Z,1.73
2022-09-24T11:25:10.561Z,1.93
2022-09-24T11:30:19.808Z,5.60
2022-09-24T11:35:35.784Z,2.37
2022-09-24T11:40:56.176Z,1.93
2022-09-24T11:46:17.248Z,2.30
2022-09-24T11:51:32.204Z,2.17
2022-09-24T11:56:41.131Z,2.33
2022-09-24T12:01:52.875Z,2.17
2022-09-24T12:07:04.130Z,1.90
2022-09-24T12:12:10.967Z,1.80
2022-09-24T12:17:20.187Z,1.80
2022-09-24T12:22:26.001Z,2.00
2022-09-24T12:27:35.632Z,2.10
2022-09-24T12:32:59.146Z,1.87
2022-09-24T12:38:07.271Z,1.50
2022-09-24T12:43:25.338Z,2.60
2022-09-24T12:48:32.056Z,2.20
2022-09-24T12:53:38.076Z,2.30
2022-09-24T12:58:43.798Z,1.90
2022-09-24T13:04:06.891Z,1.83
2022-09-24T13:09:35.853Z,1.80
2022-09-24T13:14:39.347Z,2.00
2022-09-24T13:19:47.041Z,2.10
2022-09-24T13:24:52.695Z,2.10
2022-09-24T13:30:08.017Z,2.30
2022-09-24T13:35:22.003Z,1.77
2022-09-24T13:40:29.931Z,2.20
2022-09-24T13:45:37.117Z,1.73
2022-09-24T13:50:50.208Z,1.80
2022-09-24T13:55:55.909Z,2.20
2022-09-24T14:01:02.963Z,1.90
2022-09-24T14:06:13.354Z,1.70
2022-09-24T14:11:19.699Z,1.50
2022-09-24T14:16:24.560Z,2.00
2022-09-24T14:21:35.037Z,2.03
2022-09-24T14:26:44.121Z,1.80
2022-09-24T14:31:50.478Z,2.03
2022-09-24T14:36:57.218Z,1.43
2022-09-24T14:42:00.744Z,1.90
2022-09-24T14:47:04.209Z,1.90
2022-09-24T14:52:29.075Z,1.57
2022-09-24T14:57:38.385Z,1.90
2022-09-24T15:02:41.909Z,1.97
2022-09-24T15:07:47.884Z,1.63
2022-09-24T15:12:52.438Z,1.70
2022-09-24T15:17:56.142Z,2.13
2022-09-24T15:23:01.946Z,2.30
2022-09-24T15:28:05.567Z,2.37
2022-09-24T15:33:12.065Z,1.93
2022-09-24T15:38:19.297Z,2.00
2022-09-24T15:43:24.484Z,1.73
2022-09-24T15:48:27.990Z,1.40
2022-09-24T15:53:33.733Z,1.20
2022-09-24T15:58:37.149Z,1.70
2022-09-24T16:03:41.101Z,1.60
2022-09-24T16:08:46.075Z,1.90
2022-09-24T16:13:50.803Z,2.60
2022-09-24T16:18:54.566Z,1.70
2022-09-24T16:24:00.647Z,1.57
2022-09-24T16:29:05.054Z,1.83
2022-09-24T16:34:08.539Z,2.00
2022-09-24T16:39:15.744Z,1.40
2022-09-24T16:44:19.387Z,1.30
2022-09-24T16:49:24.262Z,1.90
2022-09-24T16:54:31.386Z,1.70
2022-09-24T16:59:35.410Z,5.73
2022-09-24T17:04:39.833Z,7.33
2022-09-24T17:10:02.703Z,3.20
2022-09-24T17:15:07.415Z,2.30
2022-09-24T17:20:10.866Z,1.43
2022-09-24T17:25:16.076Z,1.20
2022-09-24T17:30:19.638Z,2.20
2022-09-24T17:35:23.124Z,1.93
2022-09-24T17:40:27.986Z,8.07
2022-09-24T17:45:31.653Z,6.90
2022-09-24T17:50:35.963Z,4.20
2022-09-24T17:55:49.465Z,3.10
2022-09-24T18:00:54.897Z,2.80
2022-09-24T18:06:01.658Z,2.70
2022-09-24T18:11:08.703Z,3.60
2022-09-24T18:16:13.782Z,2.87
2022-09-24T18:21:21.646Z,2.57
2022-09-24T18:26:28.714Z,2.60
2022-09-24T18:31:36.893Z,4.83
2022-09-24T18:36:43.471Z,3.70
2022-09-24T18:41:49.246Z,3.57
2022-09-24T18:46:57.269Z,3.93
2022-09-24T18:52:00.917Z,5.30
2022-09-24T18:57:06.741Z,7.53
2022-09-24T19:02:11.103Z,4.93
2022-09-24T19:07:14.661Z,6.03
2022-09-24T19:12:21.225Z,5.77
2022-09-24T19:17:25.956Z,4.67
2022-09-24T19:22:33.753Z,7.20
2022-09-24T19:27:40.900Z,5.80
2022-09-24T19:32:46.477Z,7.10
2022-09-24T19:37:50.708Z,7.57
2022-09-24T19:42:56.208Z,6.63
2022-09-24T19:48:00.376Z,4.90
2022-09-24T19:53:05.867Z,4.20
2022-09-24T19:58:12.711Z,4.30
2022-09-24T20:03:17.527Z,4.10
2022-09-24T20:08:21.248Z,4.20
2022-09-24T20:13:28.647Z,4.20
2022-09-24T20:18:34.664Z,4.03
2022-09-24T20:23:39.671Z,4.20
2022-09-24T20:28:46.629Z,4.20
2022-09-24T20:33:51.290Z,3.50
2022-09-24T20:38:55.043Z,3.33
2022-09-24T20:44:00.362Z,3.30
2022-09-24T20:49:03.932Z,3.20
2022-09-24T20:54:07.354Z,2.70
2022-09-24T20:59:14.113Z,3.23
2022-09-24T21:04:20.334Z,3.37
2022-09-24T21:09:24.394Z,3.03
2022-09-24T21:14:30.136Z,3.30
2022-09-24T21:19:36.514Z,3.50
2022-09-24T21:24:41.187Z,3.23
2022-09-24T21:29:47.144Z,3.10
2022-09-24T21:34:50.862Z,3.10
2022-09-24T21:39:55.014Z,3.20
2022-09-24T21:45:01.250Z,3.30
2022-09-24T21:50:05.546Z,3.93
2022-09-24T21:55:13.703Z,3.33
2022-09-24T22:00:19.093Z,3.57
2022-09-24T22:05:24.000Z,3.83
2022-09-24T22:10:27.604Z,3.47
2022-09-24T22:15:33.683Z,3.33
2022-09-24T22:20:43.396Z,3.50
2022-09-24T22:25:47.112Z,2.67
2022-09-24T22:30:52.850Z,3.27
2022-09-24T22:35:56.824Z,3.23
2022-09-24T22:41:01.216Z,3.17
2022-09-24T22:46:08.099Z,2.47
2022-09-24T22:51:11.583Z,2.40
2022-09-24T22:56:16.729Z,2.80
2022-09-24T23:01:23.900Z,3.30
2022-09-24T23:06:28.037Z,2.47
2022-09-24T23:11:33.284Z,2.90
2022-09-24T23:16:39.239Z,2.70
2022-09-24T23:21:42.927Z,2.97
2022-09-24T23:26:47.517Z,2.40
2022-09-24T23:31:52.306Z,2.53
2022-09-24T23:36:55.767Z,3.27
2022-09-24T23:41:59.193Z,3.43
2022-09-24T23:47:04.042Z,2.70
2022-09-24T23:52:07.498Z,2.33
2022-09-24T23:57:11.269Z,3.43
